Time;durP1;ratioP1;P1;durP2;ratioP2;P2;SDS_P1;SDS_P2;PMS_P1;PMS_P2;Temp;Humidity;BMP_temperature;BMP_pressure;BME280_temperature;BME280_humidity;BME280_pressure;Samples;Min_cycle;Max_cycle;Signal;HPM_P1;HPM_P2
2022/05/26 00:01:16;;;;;;;2.15;0.85;;;16.90;99.90;;;;;;5037026;28;22682;-72
2022/05/26 00:03:45;;;;;;;0.98;0.70;;;16.80;99.60;;;;;;5017699;28;20033;-73
2022/05/26 00:06:15;;;;;;;1.05;0.60;;;16.80;99.40;;;;;;5018000;28;20041;-73
2022/05/26 00:08:42;;;;;;;1.00;0.50;;;16.80;99.90;;;;;;5022462;28;20068;-72
2022/05/26 00:11:15;;;;;;;1.67;0.98;;;16.60;99.70;;;;;;5019500;28;20435;-72
2022/05/26 00:13:42;;;;;;;1.50;0.80;;;16.60;99.70;;;;;;5020113;28;20103;-73
2022/05/26 00:16:11;;;;;;;3.17;0.70;;;16.60;99.90;;;;;;5022550;28;20037;-73
2022/05/26 00:18:38;;;;;;;2.25;0.65;;;16.60;99.90;;;;;;5020639;28;20566;-74
2022/05/26 00:21:06;;;;;;;2.08;0.77;;;16.50;99.60;;;;;;5020478;28;20046;-74
2022/05/26 00:23:33;;;;;;;2.10;0.50;;;16.40;99.60;;;;;;5013547;28;20052;-73
2022/05/26 00:26:01;;;;;;;1.10;0.57;;;16.30;99.90;;;;;;5017707;28;20051;-73
2022/05/26 00:28:28;;;;;;;1.98;0.60;;;16.30;99.50;;;;;;5021183;28;20044;-73
2022/05/26 00:30:55;;;;;;;3.25;0.40;;;16.20;98.80;;;;;;5023019;28;20042;-73
2022/05/26 00:33:22;;;;;;;2.00;0.50;;;16.20;99.20;;;;;;5018576;28;20046;-73
2022/05/26 00:35:49;;;;;;;1.08;0.40;;;16.30;99.40;;;;;;5016426;28;20038;-73
2022/05/26 00:38:17;;;;;;;1.70;0.50;;;16.40;98.30;;;;;;5020744;28;20148;-73
2022/05/26 00:40:45;;;;;;;1.90;0.70;;;16.40;98.20;;;;;;5019287;28;20033;-73
2022/05/26 00:43:13;;;;;;;2.08;0.50;;;16.40;98.00;;;;;;5022032;28;20045;-73
2022/05/26 00:46:02;;;;;;;6.95;0.68;;;16.40;98.20;;;;;;5018364;28;20112;-73
2022/05/26 00:48:42;;;;;;;3.03;0.43;;;16.40;98.20;;;;;;5021671;28;20033;-73
2022/05/26 00:51:11;;;;;;;1.40;0.43;;;16.40;97.70;;;;;;5035672;28;20037;-73
2022/05/26 00:53:51;;;;;;;1.15;0.30;;;16.30;96.70;;;;;;5032720;28;20077;-73
2022/05/26 00:57:01;;;;;;;1.20;0.30;;;16.20;96.60;;;;;;5016599;28;20045;-74
2022/05/26 00:59:34;;;;;;;1.58;0.50;;;16.10;96.50;;;;;;4967717;28;20109;-73
2022/05/26 01:02:02;;;;;;;1.27;0.47;;;16.10;96.50;;;;;;4978290;28;20054;-73
2022/05/26 01:04:37;;;;;;;2.72;0.60;;;16.10;96.50;;;;;;4992264;28;20042;-73
2022/05/26 01:07:16;;;;;;;1.88;0.40;;;16.10;96.00;;;;;;5017561;28;20827;-72
2022/05/26 01:09:43;;;;;;;1.60;0.20;;;16.10;95.80;;;;;;5019794;28;20480;-72
2022/05/26 01:12:11;;;;;;;1.13;0.30;;;16.20;95.20;;;;;;5048661;28;20045;-74
2022/05/26 01:14:46;;;;;;;0.80;0.30;;;16.10;95.20;;;;;;5018917;28;20037;-72
2022/05/26 01:17:44;;;;;;;2.33;0.70;;;16.10;95.40;;;;;;5023609;28;20029;-72
2022/05/26 01:20:30;;;;;;;1.00;0.40;;;16.00;95.10;;;;;;5018859;28;20290;-74
2022/05/26 01:23:12;;;;;;;1.02;0.40;;;16.00;95.30;;;;;;5002323;28;20049;-74
2022/05/26 01:26:13;;;;;;;1.90;0.50;;;16.10;95.20;;;;;;5015906;28;20300;-74
2022/05/26 01:29:20;;;;;;;1.17;0.50;;;16.10;95.40;;;;;;5019469;28;20050;-73
2022/05/26 01:31:54;;;;;;;1.15;0.60;;;16.20;95.40;;;;;;5022153;28;20120;-73
2022/05/26 01:34:42;;;;;;;1.42;0.77;;;16.20;95.70;;;;;;5017783;28;20164;-73
2022/05/26 01:37:48;;;;;;;1.88;1.17;;;16.20;95.80;;;;;;5032887;28;20041;-73
2022/05/26 01:40:40;;;;;;;1.45;0.82;;;16.20;95.80;;;;;;4981345;28;20064;-72
2022/05/26 01:43:34;;;;;;;1.58;0.60;;;16.10;95.70;;;;;;5014148;28;20042;-73
2022/05/26 01:46:14;;;;;;;1.98;1.05;;;16.00;96.20;;;;;;5020048;28;20116;-73
2022/05/26 01:49:00;;;;;;;1.67;0.60;;;16.00;96.90;;;;;;5016941;28;20372;-72
2022/05/26 01:51:35;;;;;;;1.85;0.95;;;16.00;97.30;;;;;;5018332;28;20084;-73
2022/05/26 01:54:15;;;;;;;1.13;0.65;;;16.00;97.40;;;;;;5018291;28;20044;-72
2022/05/26 01:56:44;;;;;;;1.02;0.63;;;15.90;97.10;;;;;;5016477;28;20037;-72
2022/05/26 01:59:20;;;;;;;2.35;0.95;;;15.90;97.30;;;;;;5002043;28;20139;-72
2022/05/26 02:02:02;;;;;;;1.95;0.95;;;16.00;97.30;;;;;;5017277;28;20041;-73
2022/05/26 02:04:36;;;;;;;2.05;0.85;;;15.90;97.00;;;;;;5020487;28;20124;-73
2022/05/26 02:07:17;;;;;;;1.85;0.60;;;15.90;96.80;;;;;;5021715;28;20091;-73
2022/05/26 02:09:45;;;;;;;2.28;0.80;;;15.80;96.40;;;;;;5020891;28;20099;-73
2022/05/26 02:12:24;;;;;;;3.08;1.05;;;15.70;96.70;;;;;;5020294;28;20046;-73
2022/05/26 02:14:58;;;;;;;1.77;1.15;;;15.60;97.00;;;;;;5017803;28;20038;-73
2022/05/26 02:17:34;;;;;;;1.30;0.80;;;15.50;97.90;;;;;;5020275;28;20484;-73
2022/05/26 02:20:15;;;;;;;1.98;1.20;;;15.50;97.40;;;;;;5015761;28;20053;-73
2022/05/26 02:22:52;;;;;;;1.35;0.93;;;15.40;97.60;;;;;;5020505;28;20415;-73
2022/05/26 02:25:21;;;;;;;4.85;1.10;;;15.40;98.00;;;;;;5019397;28;20052;-72
2022/05/26 02:27:54;;;;;;;1.83;0.93;;;15.40;97.70;;;;;;5020212;28;20052;-72
2022/05/26 02:30:26;;;;;;;1.33;0.60;;;15.30;98.40;;;;;;5005944;28;20064;-73
2022/05/26 02:32:54;;;;;;;2.08;0.50;;;15.30;97.70;;;;;;5016573;28;20042;-74
2022/05/26 02:35:34;;;;;;;4.03;0.80;;;15.40;96.50;;;;;;5017776;28;20214;-74
2022/05/26 02:38:04;;;;;;;1.50;0.70;;;15.60;95.70;;;;;;5037911;28;20049;-73
2022/05/26 02:40:32;;;;;;;1.27;0.65;;;15.60;96.00;;;;;;5022321;28;22614;-72
2022/05/26 02:43:04;;;;;;;3.28;1.02;;;15.60;96.00;;;;;;5021985;28;20692;-73
2022/05/26 02:45:59;;;;;;;1.42;0.75;;;15.70;96.00;;;;;;5020257;28;20096;-73
2022/05/26 02:48:46;;;;;;;3.08;0.70;;;15.70;95.60;;;;;;5022223;28;20053;-73
2022/05/26 02:51:26;;;;;;;2.53;0.80;;;15.70;95.70;;;;;;5022777;28;20140;-73
2022/05/26 02:54:17;;;;;;;8.15;1.58;;;15.60;96.60;;;;;;5025038;28;20045;-73
2022/05/26 02:57:01;;;;;;;3.25;0.90;;;15.50;96.50;;;;;;4989040;28;20156;-72
2022/05/26 02:59:39;;;;;;;2.03;0.70;;;15.50;96.10;;;;;;5023258;28;20045;-72
2022/05/26 03:02:16;;;;;;;2.33;0.90;;;15.50;96.70;;;;;;5016884;28;20073;-73
2022/05/26 03:04:51;;;;;;;1.75;0.65;;;15.50;96.00;;;;;;5034801;28;20641;-72
2022/05/26 03:07:24;;;;;;;1.75;0.98;;;15.50;95.90;;;;;;5021723;28;20052;-72
2022/05/26 03:09:53;;;;;;;2.13;1.00;;;15.50;96.10;;;;;;5037562;28;20054;-72
2022/05/26 03:12:30;;;;;;;2.97;0.98;;;15.40;96.90;;;;;;5019807;28;20385;-73
2022/05/26 03:14:57;;;;;;;2.90;1.40;;;15.40;97.30;;;;;;5021382;28;20044;-72
2022/05/26 03:17:24;;;;;;;1.67;1.00;;;15.30;98.30;;;;;;5036874;28;20224;-72
2022/05/26 03:19:52;;;;;;;2.75;1.10;;;15.40;97.90;;;;;;5020855;28;20500;-72
2022/05/26 03:22:19;;;;;;;2.53;1.00;;;15.40;97.70;;;;;;5023328;28;20463;-72
2022/05/26 03:24:47;;;;;;;2.75;1.08;;;15.40;97.90;;;;;;5004911;28;20052;-73
2022/05/26 03:27:14;;;;;;;1.90;0.80;;;15.40;97.30;;;;;;5022130;28;20041;-73
2022/05/26 03:29:41;;;;;;;3.83;1.05;;;15.20;96.10;;;;;;5023017;28;20050;-73
2022/05/26 03:32:09;;;;;;;2.35;1.00;;;15.10;96.90;;;;;;5024579;28;20111;-73
2022/05/26 03:42:55;;;;;;;4.30;1.13;;;15.30;96.00;;;;;;5025402;28;20536;-72
2022/05/26 03:45:24;;;;;;;2.60;0.90;;;15.40;95.30;;;;;;5021825;28;20037;-72
2022/05/26 03:47:52;;;;;;;2.13;0.90;;;15.40;94.90;;;;;;5020372;28;20099;-72
2022/05/26 03:50:20;;;;;;;1.92;0.80;;;15.40;94.40;;;;;;5024016;28;20049;-73
2022/05/26 03:52:47;;;;;;;1.55;0.50;;;15.40;94.20;;;;;;5018781;28;21019;-73
2022/05/26 03:55:14;;;;;;;2.30;0.80;;;15.40;94.40;;;;;;5020445;28;20041;-73
2022/05/26 03:57:42;;;;;;;1.77;0.50;;;15.30;93.50;;;;;;5038266;28;20037;-72
2022/05/26 04:00:10;;;;;;;2.53;0.60;;;15.30;93.60;;;;;;5021953;28;20050;-73
2022/05/26 04:02:40;;;;;;;1.65;0.50;;;15.40;93.20;;;;;;5017994;28;20057;-72
2022/05/26 04:05:09;;;;;;;0.95;0.55;;;15.50;93.10;;;;;;5016714;28;20041;-73
2022/05/26 04:07:37;;;;;;;2.00;0.60;;;15.50;92.60;;;;;;5019071;28;20041;-72
2022/05/26 04:10:06;;;;;;;1.20;0.65;;;15.60;92.50;;;;;;5020922;28;20058;-72
2022/05/26 04:12:34;;;;;;;1.35;0.50;;;15.70;92.40;;;;;;5019932;28;20072;-72
2022/05/26 04:15:02;;;;;;;3.35;0.50;;;15.80;91.90;;;;;;5022356;28;20072;-73
2022/05/26 04:17:29;;;;;;;1.67;0.60;;;15.80;92.00;;;;;;5015618;28;20049;-72
2022/05/26 04:19:57;;;;;;;1.25;0.63;;;15.80;92.50;;;;;;5018431;28;20049;-73
2022/05/26 04:22:24;;;;;;;1.15;0.50;;;15.90;92.60;;;;;;5020620;28;20052;-73
2022/05/26 04:24:57;;;;;;;2.55;0.90;;;15.90;92.10;;;;;;5023612;28;20108;-73
2022/05/26 04:27:26;;;;;;;0.77;0.47;;;16.00;92.40;;;;;;5035935;28;20069;-73
2022/05/26 04:29:54;;;;;;;1.73;0.40;;;16.00;91.90;;;;;;5004047;28;20042;-72
2022/05/26 04:32:22;;;;;;;1.30;0.65;;;16.10;92.50;;;;;;5005076;28;20049;-73
2022/05/26 04:34:50;;;;;;;2.17;0.60;;;16.10;92.20;;;;;;5019911;28;20052;-73
2022/05/26 04:37:22;;;;;;;4.22;0.90;;;16.30;92.20;;;;;;5018174;28;20064;-73
2022/05/26 04:39:50;;;;;;;;;;;16.40;92.20;;;;;;5036077;28;20243;-73
2022/05/26 04:42:18;;;;;;;3.70;1.00;;;16.40;91.60;;;;;;5020788;28;19954;-73
2022/05/26 04:44:46;;;;;;;2.88;0.98;;;16.50;92.50;;;;;;5020527;28;20073;-73
2022/05/26 04:47:14;;;;;;;1.80;0.90;;;16.50;92.70;;;;;;5020985;28;20042;-73
2022/05/26 04:49:41;;;;;;;1.83;1.08;;;16.70;92.30;;;;;;5017923;28;20045;-72
2022/05/26 04:52:12;;;;;;;2.85;0.75;;;16.70;92.10;;;;;;5016143;28;20056;-73
2022/05/26 04:54:42;;;;;;;1.75;0.50;;;16.80;90.50;;;;;;5021007;28;20385;-73
2022/05/26 04:57:11;;;;;;;1.23;0.52;;;16.90;90.60;;;;;;5052645;28;20038;-73
2022/05/26 04:59:39;;;;;;;2.85;0.50;;;16.90;90.00;;;;;;5000395;28;20059;-73
2022/05/26 05:02:11;;;;;;;1.67;0.70;;;17.10;90.70;;;;;;4980633;28;20091;-73
2022/05/26 05:04:39;;;;;;;1.60;0.40;;;17.20;89.80;;;;;;4979351;28;20447;-73
2022/05/26 05:07:08;;;;;;;1.73;0.52;;;17.40;88.40;;;;;;4979667;28;20053;-73
2022/05/26 05:09:36;;;;;;;1.25;0.50;;;17.50;85.40;;;;;;4995615;28;20089;-73
2022/05/26 05:12:04;;;;;;;1.45;0.40;;;17.50;85.10;;;;;;5006892;28;22077;-74
2022/05/26 05:14:41;;;;;;;1.92;0.40;;;17.60;86.30;;;;;;5024405;28;20052;-73
2022/05/26 05:17:08;;;;;;;1.38;0.40;;;17.70;83.50;;;;;;4992495;28;20049;-73
2022/05/26 05:19:35;;;;;;;3.10;0.63;;;17.90;86.00;;;;;;5008670;28;20191;-73
2022/05/26 05:22:31;;;;;;;1.35;0.50;;;18.00;83.70;;;;;;5020980;28;20054;-73
2022/05/26 05:25:05;;;;;;;2.97;0.70;;;18.20;85.70;;;;;;5006663;28;20550;-73
2022/05/26 05:27:46;;;;;;;1.85;0.50;;;18.40;86.40;;;;;;4980799;28;20041;-72
2022/05/26 05:30:38;;;;;;;0.95;0.40;;;18.50;84.00;;;;;;4989560;28;20161;-73
2022/05/26 05:33:16;;;;;;;1.10;0.30;;;18.70;84.60;;;;;;4986371;28;20591;-73
2022/05/26 05:36:13;;;;;;;2.25;0.40;;;18.80;81.80;;;;;;4991778;28;22393;-73
2022/05/26 05:38:40;;;;;;;1.27;0.40;;;18.80;80.70;;;;;;4981377;28;20057;-73
2022/05/26 05:41:08;;;;;;;1.38;0.65;;;18.90;84.10;;;;;;5012774;28;20057;-72
2022/05/26 05:43:36;;;;;;;2.10;0.40;;;19.00;79.30;;;;;;4991797;28;20053;-72
2022/05/26 05:46:04;;;;;;;1.38;0.95;;;19.10;80.40;;;;;;4988122;28;20057;-73
2022/05/26 05:48:31;;;;;;;2.88;0.43;;;19.20;79.40;;;;;;4990527;28;20516;-75
2022/05/26 05:50:58;;;;;;;0.85;0.52;;;19.10;78.70;;;;;;4990772;28;20049;-75
2022/05/26 05:53:26;;;;;;;2.88;0.43;;;19.20;77.50;;;;;;4989219;28;20064;-74
2022/05/26 05:55:53;;;;;;;1.73;0.43;;;19.40;78.10;;;;;;5004741;28;20053;-73
2022/05/26 05:58:20;;;;;;;0.77;0.32;;;19.60;78.70;;;;;;4990639;28;20045;-73
2022/05/26 06:00:47;;;;;;;0.90;0.43;;;19.50;78.20;;;;;;4989309;28;20049;-73
2022/05/26 06:03:14;;;;;;;1.20;0.30;;;19.50;78.40;;;;;;4989556;28;20045;-72
2022/05/26 06:05:41;;;;;;;1.25;0.40;;;19.80;78.70;;;;;;4984421;28;20054;-73
2022/05/26 06:08:08;;;;;;;7.95;1.05;;;19.80;77.80;;;;;;5006786;28;20065;-75
2022/05/26 06:10:37;;;;;;;2.00;0.50;;;19.80;76.70;;;;;;5005867;28;20111;-73
2022/05/26 06:13:04;;;;;;;1.02;0.50;;;19.70;77.90;;;;;;4991381;28;20065;-73
2022/05/26 06:15:33;;;;;;;1.15;0.50;;;19.80;77.90;;;;;;4987401;28;20044;-73
2022/05/26 06:18:00;;;;;;;2.45;0.40;;;19.80;77.50;;;;;;4991562;28;20504;-73
2022/05/26 06:20:28;;;;;;;1.92;0.60;;;19.90;77.50;;;;;;4980265;28;20044;-73
2022/05/26 06:22:55;;;;;;;3.33;0.75;;;20.00;77.60;;;;;;5002788;28;20045;-72
2022/05/26 06:25:22;;;;;;;1.83;0.82;;;20.00;77.50;;;;;;4991941;28;20068;-73
2022/05/26 06:30:35;;;;;;;0.80;0.38;;;20.10;78.50;;;;;;4987349;28;20041;-73
2022/05/26 06:38:41;;;;;;;0.85;0.35;;;20.60;77.30;;;;;;5004023;28;20049;-73
2022/05/26 06:43:57;;;;;;;1.23;0.38;;;20.90;75.70;;;;;;4988099;28;20084;-74
2022/05/26 06:46:24;;;;;;;1.70;0.50;;;21.20;75.70;;;;;;4980799;28;20050;-73
2022/05/26 06:48:52;;;;;;;1.27;0.47;;;21.30;75.60;;;;;;4988186;28;20111;-74
2022/05/26 06:51:19;;;;;;;1.60;0.50;;;21.50;75.00;;;;;;5000495;28;20849;-74
2022/05/26 06:53:48;;;;;;;0.82;0.40;;;21.60;75.50;;;;;;4987178;28;20045;-74
2022/05/26 06:56:15;;;;;;;2.75;0.32;;;21.70;76.30;;;;;;4989204;28;20057;-74
2022/05/26 06:58:42;;;;;;;1.30;0.22;;;21.60;70.50;;;;;;4985962;28;20041;-74
2022/05/26 07:01:14;;;;;;;1.45;0.30;;;21.40;70.80;;;;;;5004221;28;20052;-74
2022/05/26 07:03:42;;;;;;;1.27;1.17;;;21.40;71.10;;;;;;4986892;28;20054;-74
2022/05/26 07:06:18;;;;;;;1.35;0.55;;;21.40;69.00;;;;;;4991532;28;20046;-73
2022/05/26 07:08:46;;;;;;;1.55;0.30;;;21.40;70.00;;;;;;4986050;28;20681;-74
2022/05/26 07:11:14;;;;;;;0.47;0.20;;;21.50;70.10;;;;;;4986265;28;20060;-74
2022/05/26 07:13:42;;;;;;;0.70;0.30;;;21.60;70.00;;;;;;4992070;28;20053;-73
2022/05/26 07:16:10;;;;;;;2.63;0.50;;;21.70;67.70;;;;;;4989845;28;20512;-73
2022/05/26 07:18:39;;;;;;;2.05;0.40;;;21.70;66.90;;;;;;4987053;28;20056;-73
2022/05/26 07:21:08;;;;;;;5.38;0.52;;;21.80;68.30;;;;;;4976835;28;20084;-74
2022/05/26 07:23:35;;;;;;;3.50;0.30;;;21.90;66.90;;;;;;5025575;28;20052;-74
2022/05/26 07:26:10;;;;;;;1.33;0.30;;;22.10;69.00;;;;;;4990669;28;20064;-74
2022/05/26 07:28:40;;;;;;;1.60;0.63;;;21.90;65.50;;;;;;4988843;28;20144;-74
2022/05/26 07:31:08;;;;;;;2.15;0.20;;;21.90;65.40;;;;;;5004636;28;20041;-74
2022/05/26 07:33:36;;;;;;;1.50;0.35;;;21.90;65.80;;;;;;4983339;28;20056;-74
2022/05/26 07:36:04;;;;;;;1.67;0.30;;;22.10;65.90;;;;;;4988956;28;20599;-74
2022/05/26 07:41:34;;;;;;;0.80;0.30;;;22.20;63.90;;;;;;4992908;28;20233;-74
2022/05/26 07:44:02;;;;;;;1.10;0.40;;;22.30;64.90;;;;;;4990016;28;20953;-74
2022/05/26 07:46:30;;;;;;;0.80;0.20;;;22.30;64.00;;;;;;4993118;28;20052;-74
2022/05/26 07:48:57;;;;;;;1.95;0.20;;;22.50;66.60;;;;;;4988878;28;20210;-74
2022/05/26 07:51:24;;;;;;;1.45;0.40;;;22.40;63.10;;;;;;4992159;28;20053;-74
2022/05/26 07:53:52;;;;;;;1.33;0.30;;;22.30;62.00;;;;;;4987627;28;22385;-74
2022/05/26 07:56:20;;;;;;;1.50;0.30;;;22.30;63.40;;;;;;4996541;28;20700;-75
2022/05/26 07:58:47;;;;;;;0.90;0.20;;;22.40;63.00;;;;;;4975011;28;22644;-74
2022/05/26 08:01:15;;;;;;;1.13;0.30;;;22.40;62.80;;;;;;4989838;28;20136;-74
2022/05/26 08:03:42;;;;;;;2.22;0.32;;;22.40;64.80;;;;;;4991476;28;20205;-74
2022/05/26 08:06:09;;;;;;;1.23;0.30;;;22.70;67.90;;;;;;4996214;28;20056;-73
2022/05/26 08:08:37;;;;;;;2.10;0.60;;;22.70;67.60;;;;;;4994733;28;22521;-74
2022/05/26 08:11:05;;;;;;;1.00;0.30;;;22.80;71.20;;;;;;4976523;28;20060;-74
2022/05/26 08:13:32;;;;;;;0.88;0.28;;;22.80;65.70;;;;;;4992592;28;20045;-75
2022/05/26 08:15:59;;;;;;;2.58;0.35;;;22.80;67.00;;;;;;4992837;28;20057;-74
2022/05/26 08:18:27;;;;;;;1.15;0.30;;;22.50;68.20;;;;;;4991763;28;20049;-74
2022/05/26 08:20:54;;;;;;;1.88;0.32;;;22.50;69.00;;;;;;4997972;28;20053;-74
2022/05/26 08:23:23;;;;;;;0.95;0.52;;;22.60;68.00;;;;;;4995397;28;20128;-74
2022/05/26 08:25:50;;;;;;;2.33;0.50;;;22.70;67.20;;;;;;5018323;28;20053;-73
2022/05/26 08:28:18;;;;;;;1.70;0.50;;;22.70;67.00;;;;;;5017300;28;20076;-75
2022/05/26 08:30:45;;;;;;;2.40;0.38;;;22.90;67.00;;;;;;4990241;28;20048;-75
2022/05/26 08:33:12;;;;;;;1.80;0.40;;;22.70;66.80;;;;;;4996534;28;20050;-75
2022/05/26 08:35:39;;;;;;;1.48;0.40;;;22.80;67.00;;;;;;4988658;28;20053;-73
2022/05/26 08:38:08;;;;;;;0.80;0.40;;;22.70;65.50;;;;;;4987798;28;20051;-74
2022/05/26 08:40:43;;;;;;;1.63;0.30;;;22.50;69.00;;;;;;4993081;28;20060;-74
2022/05/26 08:43:20;;;;;;;0.50;0.40;;;23.00;68.00;;;;;;4998708;28;20049;-73
2022/05/26 08:45:53;;;;;;;1.65;0.30;;;23.00;67.00;;;;;;4972708;28;20114;-73
2022/05/26 08:48:48;;;;;;;1.83;0.43;;;23.30;68.60;;;;;;5006448;28;20122;-73
2022/05/26 08:51:28;;;;;;;1.65;0.30;;;23.20;68.20;;;;;;4990460;28;20052;-73
2022/05/26 08:53:58;;;;;;;0.85;0.32;;;22.90;68.40;;;;;;4995690;28;20512;-73
2022/05/26 08:56:27;;;;;;;0.80;0.30;;;22.90;66.00;;;;;;4987317;28;20060;-73
2022/05/26 08:59:01;;;;;;;1.55;0.40;;;23.10;66.20;;;;;;4994822;28;20041;-75
2022/05/26 09:01:32;;;;;;;1.50;0.30;;;22.50;64.90;;;;;;4981822;28;20166;-73
2022/05/26 09:04:01;;;;;;;1.02;0.30;;;22.50;68.40;;;;;;5007157;28;20057;-73
2022/05/26 09:06:30;;;;;;;0.73;0.30;;;22.90;68.40;;;;;;5003527;28;22423;-73
2022/05/26 09:14:19;;;;;;;1.80;0.30;;;23.20;64.20;;;;;;4989710;28;20062;-74
2022/05/26 09:16:46;;;;;;;1.70;0.43;;;23.40;64.00;;;;;;4979995;28;20042;-73
2022/05/26 09:19:17;;;;;;;7.85;1.25;;;23.00;60.60;;;;;;5008605;28;20087;-73
2022/05/26 09:21:46;;;;;;;1.67;0.20;;;22.80;63.00;;;;;;4993103;28;20534;-73
2022/05/26 09:24:39;;;;;;;2.17;0.30;;;22.70;63.30;;;;;;4982186;28;20099;-74
2022/05/26 09:27:25;;;;;;;0.98;0.20;;;22.70;63.20;;;;;;4998109;28;20054;-73
2022/05/26 09:29:53;;;;;;;1.85;0.77;;;22.70;64.40;;;;;;4987892;28;20045;-73
2022/05/26 09:32:30;;;;;;;0.50;0.20;;;23.20;63.40;;;;;;4992983;28;20055;-73
2022/05/26 09:35:10;;;;;;;2.95;0.20;;;23.40;62.00;;;;;;4986980;28;20251;-73
2022/05/26 09:37:40;;;;;;;2.45;0.20;;;23.40;63.00;;;;;;5017349;28;20415;-74
2022/05/26 09:40:24;;;;;;;2.28;0.43;;;23.40;61.20;;;;;;4997056;28;20246;-74
2022/05/26 09:43:09;;;;;;;1.33;0.10;;;22.80;61.80;;;;;;4996438;28;20092;-75
2022/05/26 09:45:48;;;;;;;0.52;0.17;;;23.00;59.60;;;;;;4999026;28;20079;-75
2022/05/26 09:48:26;;;;;;;1.90;0.20;;;23.10;60.40;;;;;;5000935;28;20870;-73
2022/05/26 09:51:25;;;;;;;2.25;0.30;;;23.40;60.30;;;;;;5021956;28;20271;-74
2022/05/26 09:53:54;;;;;;;0.45;0.10;;;23.60;61.70;;;;;;5013361;28;20084;-74
2022/05/26 09:56:40;;;;;;;1.70;0.30;;;23.70;58.90;;;;;;4990241;28;20096;-74
2022/05/26 09:59:29;;;;;;;1.63;0.20;;;23.70;54.00;;;;;;4987273;28;20049;-73
2022/05/26 10:02:21;;;;;;;0.95;0.10;;;23.80;55.70;;;;;;4998348;28;22526;-74
2022/05/26 10:05:20;;;;;;;2.05;0.15;;;23.70;54.60;;;;;;4980241;28;20064;-74
2022/05/26 10:08:21;;;;;;;3.88;0.20;;;23.80;54.50;;;;;;4960993;28;20061;-74
2022/05/26 10:11:24;;;;;;;1.05;0.10;;;23.60;53.80;;;;;;4994214;28;20135;-74
2022/05/26 10:14:10;;;;;;;1.38;0.20;;;23.40;54.70;;;;;;5019558;28;20156;-74
2022/05/26 10:17:23;;;;;;;0.90;0.13;;;23.60;56.10;;;;;;4999646;28;22497;-73
2022/05/26 10:20:21;;;;;;;0.47;0.10;;;23.50;56.50;;;;;;4983870;28;20075;-72
2022/05/26 10:23:06;;;;;;;0.60;0.10;;;23.50;51.90;;;;;;4984590;28;20053;-72
2022/05/26 10:25:38;;;;;;;1.67;0.20;;;23.60;52.20;;;;;;4973983;28;20059;-72
2022/05/26 10:28:18;;;;;;;;;;;23.60;53.40;;;;;;5010716;28;20199;-73
2022/05/26 10:31:07;;;;;;;1.42;0.20;;;23.60;55.50;;;;;;4991571;28;20489;-73
2022/05/26 10:33:57;;;;;;;0.88;0.40;;;24.00;55.00;;;;;;5019181;28;20060;-74
2022/05/26 10:36:36;;;;;;;0.65;0.20;;;23.60;55.00;;;;;;5001109;28;20080;-73
2022/05/26 10:39:12;;;;;;;4.13;0.20;;;23.40;54.90;;;;;;5021282;28;20716;-73
2022/05/26 10:41:45;;;;;;;0.73;0.30;;;23.20;57.20;;;;;;4980903;28;24299;-72
2022/05/26 10:44:35;;;;;;;1.55;0.22;;;23.40;56.90;;;;;;4991805;28;20650;-74
2022/05/26 10:47:46;;;;;;;2.42;0.38;;;23.40;58.50;;;;;;4991042;28;20058;-74
2022/05/26 10:50:12;;;;;;;0.65;0.10;;;23.10;58.70;;;;;;4969570;28;20057;-74
2022/05/26 10:52:47;;;;;;;1.73;0.20;;;23.40;54.60;;;;;;4990810;28;22485;-75
2022/05/26 10:55:18;;;;;;;2.08;0.30;;;23.30;56.40;;;;;;5011412;28;20052;-74
2022/05/26 10:58:05;;;;;;;1.23;0.20;;;23.50;57.70;;;;;;5005135;28;20504;-75
2022/05/26 11:00:33;;;;;;;1.30;0.30;;;23.80;56.30;;;;;;5006077;28;20072;-75
2022/05/26 11:03:05;;;;;;;1.38;0.65;;;23.90;54.70;;;;;;5006635;28;20515;-75
2022/05/26 11:05:41;;;;;;;2.55;0.20;;;23.80;53.80;;;;;;5019395;28;20061;-74
2022/05/26 11:08:37;;;;;;;1.73;0.80;;;23.70;54.60;;;;;;4982604;28;22483;-75
2022/05/26 11:11:19;;;;;;;0.93;0.17;;;23.70;54.30;;;;;;4953021;28;20143;-75
2022/05/26 11:14:07;;;;;;;0.47;0.10;;;23.90;54.70;;;;;;5002028;28;20045;-74
2022/05/26 11:19:39;;;;;;;0.95;0.10;;;24.10;51.80;;;;;;5002065;28;20046;-75
2022/05/26 11:22:10;;;;;;;1.05;0.20;;;24.10;51.50;;;;;;4996701;28;20057;-75
2022/05/26 11:24:37;;;;;;;1.23;0.20;;;24.10;53.00;;;;;;4996077;28;22637;-75
2022/05/26 11:27:11;;;;;;;0.75;0.10;;;24.20;51.30;;;;;;4990981;28;20049;-75
2022/05/26 11:29:45;;;;;;;0.60;0.10;;;24.20;51.70;;;;;;4988934;28;20851;-75
2022/05/26 11:38:16;;;;;;;0.60;0.20;;;24.20;51.50;;;;;;4998337;28;20052;-74
2022/05/26 11:40:55;;;;;;;0.40;0.13;;;24.30;51.40;;;;;;5003937;28;22429;-75
2022/05/26 11:43:33;;;;;;;1.08;0.20;;;24.30;52.00;;;;;;5018772;28;20057;-75
2022/05/26 11:46:00;;;;;;;0.60;0.10;;;24.40;51.50;;;;;;4998874;28;20045;-74
2022/05/26 11:48:31;;;;;;;1.73;0.15;;;24.40;51.50;;;;;;5006315;28;20140;-75
2022/05/26 11:51:39;;;;;;;1.52;0.10;;;24.40;51.90;;;;;;4999451;28;20049;-76
2022/05/26 11:54:08;;;;;;;0.95;0.30;;;24.30;52.10;;;;;;4989366;28;20053;-74
2022/05/26 11:56:39;;;;;;;1.75;0.10;;;24.50;51.70;;;;;;4991438;28;20045;-74
2022/05/26 11:59:42;;;;;;;1.75;0.15;;;24.40;50.60;;;;;;4991325;28;20053;-75
2022/05/26 12:02:28;;;;;;;2.67;0.30;;;24.20;52.60;;;;;;5015814;28;20080;-75
2022/05/26 12:04:55;;;;;;;0.63;0.38;;;24.40;50.70;;;;;;4988199;28;20057;-75
2022/05/26 12:07:45;;;;;;;1.52;0.20;;;24.40;55.10;;;;;;5000128;28;20046;-75
2022/05/26 12:10:23;;;;;;;1.10;0.20;;;24.40;52.60;;;;;;4980262;28;20166;-74
2022/05/26 12:13:10;;;;;;;0.98;0.10;;;24.20;52.80;;;;;;4992721;28;20057;-74
2022/05/26 12:16:06;;;;;;;0.50;0.17;;;24.20;53.20;;;;;;4983370;28;20045;-75
2022/05/26 12:18:54;;;;;;;0.80;0.20;;;24.40;53.80;;;;;;5019434;28;20052;-73
2022/05/26 12:21:30;;;;;;;2.58;0.13;;;24.60;54.20;;;;;;4996750;28;20824;-73
2022/05/26 12:24:22;;;;;;;;;;;24.30;52.80;;;;;;4991127;28;20050;-73
2022/05/26 12:26:51;;;;;;;1.83;0.20;;;23.90;53.30;;;;;;5021620;28;20109;-73
2022/05/26 12:29:46;;;;;;;1.38;0.32;;;23.70;53.80;;;;;;4997995;28;20048;-74
2022/05/26 12:32:21;;;;;;;1.17;0.20;;;23.90;54.00;;;;;;5010987;28;20053;-73
2022/05/26 12:34:54;;;;;;;0.95;0.20;;;24.00;53.90;;;;;;4988528;28;20099;-73
2022/05/26 12:37:52;;;;;;;1.95;0.13;;;23.90;52.80;;;;;;5000038;28;20060;-74
2022/05/26 12:40:54;;;;;;;1.20;0.20;;;24.10;52.40;;;;;;4988069;28;20049;-73
2022/05/26 12:43:49;;;;;;;0.47;0.10;;;24.40;53.10;;;;;;4992673;28;20080;-73
2022/05/26 12:46:35;;;;;;;2.80;0.20;;;24.30;52.40;;;;;;4991104;28;20059;-73
2022/05/26 12:49:44;;;;;;;0.68;0.20;;;24.40;52.30;;;;;;4998584;28;20049;-73
2022/05/26 12:52:44;;;;;;;1.45;0.13;;;24.60;55.20;;;;;;5005904;28;20174;-74
2022/05/26 12:55:27;;;;;;;1.38;0.10;;;24.90;53.20;;;;;;5017207;28;20144;-73
2022/05/26 12:58:06;;;;;;;0.55;0.20;;;24.90;52.50;;;;;;4995539;28;20049;-74
2022/05/26 13:00:36;;;;;;;1.38;0.17;;;24.70;50.60;;;;;;5011087;28;20054;-74
2022/05/26 13:03:37;;;;;;;1.63;0.10;;;24.50;50.90;;;;;;4976810;28;20042;-73
2022/05/26 13:06:38;;;;;;;1.30;0.13;;;24.70;53.20;;;;;;5005986;28;20178;-74
2022/05/26 13:09:30;;;;;;;2.75;0.20;;;24.90;54.00;;;;;;4956805;28;20061;-74
2022/05/26 13:12:04;;;;;;;0.73;0.20;;;24.70;52.10;;;;;;5003094;28;20041;-74
2022/05/26 13:14:50;;;;;;;2.25;0.20;;;24.70;52.10;;;;;;5017058;28;20081;-73
2022/05/26 13:17:24;;;;;;;1.65;0.13;;;24.90;53.70;;;;;;5005168;28;20500;-73
2022/05/26 13:20:04;;;;;;;1.38;0.25;;;25.00;54.00;;;;;;5002818;28;20049;-74
2022/05/26 13:22:32;;;;;;;1.95;0.20;;;24.80;53.70;;;;;;4984704;28;21761;-73
2022/05/26 13:25:07;;;;;;;1.98;0.10;;;24.40;53.90;;;;;;4998816;28;20214;-73
2022/05/26 13:28:04;;;;;;;0.70;0.10;;;24.10;54.00;;;;;;5001908;28;20056;-74
2022/05/26 13:33:44;;;;;;;0.50;0.20;;;24.40;55.50;;;;;;5002603;28;20049;-74
2022/05/26 13:36:37;;;;;;;1.55;0.20;;;24.70;53.80;;;;;;5003304;28;20084;-74
2022/05/26 13:39:22;;;;;;;0.85;0.10;;;24.30;52.90;;;;;;5017320;28;20049;-73
2022/05/26 13:41:54;;;;;;;1.90;0.30;;;24.10;53.70;;;;;;5014627;28;20049;-73
2022/05/26 13:44:42;;;;;;;0.45;0.10;;;24.00;56.30;;;;;;4994354;28;20136;-73
2022/05/26 13:47:12;;;;;;;1.63;0.13;;;24.20;54.60;;;;;;5005832;28;22359;-73
2022/05/26 13:49:55;;;;;;;1.25;0.10;;;24.30;55.10;;;;;;5019611;28;20059;-73
2022/05/26 13:52:25;;;;;;;1.42;0.10;;;24.50;54.20;;;;;;5008882;28;20140;-73
2022/05/26 13:55:15;;;;;;;0.32;0.10;;;24.40;53.90;;;;;;5006531;28;20076;-73
2022/05/26 13:57:48;;;;;;;1.20;0.20;;;24.30;55.20;;;;;;5024178;28;20072;-73
2022/05/26 14:00:18;;;;;;;0.30;0.10;;;24.50;54.40;;;;;;5007601;28;20038;-73
2022/05/26 14:02:59;;;;;;;4.22;0.10;;;24.50;54.50;;;;;;5007188;28;20057;-73
2022/05/26 14:05:35;;;;;;;0.55;0.10;;;24.40;55.50;;;;;;4995073;28;22995;-74
2022/05/26 14:08:11;;;;;;;1.20;0.20;;;24.20;54.20;;;;;;5015558;28;20056;-74
2022/05/26 14:10:51;;;;;;;1.88;0.10;;;24.10;55.60;;;;;;4999361;28;20132;-73